Time;durP1;ratioP1;P1;durP2;ratioP2;P2;SDS_P1;SDS_P2;PMS_P1;PMS_P2;Temp;Humidity;BMP_temperature;BMP_pressure;BME280_temperature;BME280_humidity;BME280_pressure;Samples;Min_cycle;Max_cycle;Signal;HPM_P1;HPM_P2
2022/09/12 00:01:24;;;;;;;53.10;23.97;;;;;;;;;;5025428;28;20026;-66
2022/09/12 00:03:57;;;;;;;56.05;23.33;;;;;;;;;;5026761;28;20478;-66
2022/09/12 00:06:33;;;;;;;55.30;23.50;;;;;;;;;;5022984;28;20036;-67
2022/09/12 00:09:00;;;;;;;56.13;23.52;;;;;;;;;;5026988;28;20183;-67
2022/09/12 00:11:25;;;;;;;63.63;23.90;;;;;;;;;;5027196;28;20026;-67
2022/09/12 00:13:54;;;;;;;63.33;23.58;;;;;;;;;;5024774;28;20026;-69
2022/09/12 00:16:20;;;;;;;59.17;24.05;;;;;;;;;;5023608;28;20111;-69
2022/09/12 00:18:46;;;;;;;54.33;22.95;;;;;;;;;;5027368;28;20036;-67
2022/09/12 00:21:11;;;;;;;57.42;23.10;;;;;;;;;;5026367;28;20017;-67
2022/09/12 00:23:36;;;;;;;57.17;22.90;;;;;;;;;;5026196;28;20028;-70
2022/09/12 00:26:04;;;;;;;53.75;23.42;;;;;;;;;;5026372;28;20013;-69
2022/09/12 00:28:29;;;;;;;51.47;22.35;;;;;;;;;;5021395;28;20029;-66
2022/09/12 00:30:55;;;;;;;58.27;23.57;;;;;;;;;;5026515;28;20027;-71
2022/09/12 00:33:20;;;;;;;61.03;24.25;;;;;;;;;;5028210;28;20330;-67
2022/09/12 00:35:46;;;;;;;62.60;24.77;;;;;;;;;;5025147;28;20091;-69
2022/09/12 00:38:12;;;;;;;55.40;23.60;;;;;;;;;;5025802;28;20264;-66
2022/09/12 00:40:37;;;;;;;48.45;22.65;;;;;;;;;;5026531;28;20390;-68
2022/09/12 00:43:03;;;;;;;58.70;22.23;;;;;;;;;;5025574;28;20099;-66
2022/09/12 00:45:28;;;;;;;50.78;22.60;;;;;;;;;;5027952;28;20548;-66
2022/09/12 00:47:55;;;;;;;59.42;25.60;;;;;;;;;;5027712;28;20064;-67
2022/09/12 00:50:20;;;;;;;59.53;23.02;;;;;;;;;;5028090;28;20088;-66
2022/09/12 00:52:49;;;;;;;48.38;21.80;;;;;;;;;;5024976;28;20029;-68
2022/09/12 00:55:26;;;;;;;57.10;21.70;;;;;;;;;;5025006;28;20017;-66
2022/09/12 00:57:55;;;;;;;54.33;23.52;;;;;;;;;;5028016;28;20364;-67
2022/09/12 01:00:22;;;;;;;52.03;22.50;;;;;;;;;;5027119;28;20014;-66
2022/09/12 01:02:53;;;;;;;52.85;21.65;;;;;;;;;;5026911;28;20018;-70
2022/09/12 01:05:19;;;;;;;48.85;22.63;;;;;;;;;;5028475;28;20033;-70
2022/09/12 01:07:47;;;;;;;56.95;22.98;;;;;;;;;;5026533;28;20493;-66
2022/09/12 01:10:12;;;;;;;58.42;23.33;;;;;;;;;;5025840;28;20502;-66
2022/09/12 01:12:39;;;;;;;49.65;22.10;;;;;;;;;;5025440;28;20093;-67
2022/09/12 01:15:05;;;;;;;54.55;22.67;;;;;;;;;;5021803;28;20189;-70
2022/09/12 01:17:39;;;;;;;46.08;21.20;;;;;;;;;;5022921;28;20800;-67
2022/09/12 01:20:34;;;;;;;50.80;20.92;;;;;;;;;;5029944;28;20030;-66
2022/09/12 01:23:10;;;;;;;55.05;22.75;;;;;;;;;;5024328;28;20018;-67
2022/09/12 01:25:59;;;;;;;49.03;20.85;;;;;;;;;;5024815;28;20057;-67
2022/09/12 01:28:27;;;;;;;54.08;21.77;;;;;;;;;;5009231;28;20784;-70
2022/09/12 01:30:59;;;;;;;48.22;20.98;;;;;;;;;;5028342;28;20017;-70
2022/09/12 01:33:49;;;;;;;47.70;20.58;;;;;;;;;;5021915;28;20433;-69
2022/09/12 01:36:17;;;;;;;47.90;20.67;;;;;;;;;;5021854;28;20535;-68
2022/09/12 01:38:46;;;;;;;51.22;21.70;;;;;;;;;;5021640;28;20021;-66
2022/09/12 01:41:14;;;;;;;56.38;21.38;;;;;;;;;;5023576;28;20104;-69
2022/09/12 01:43:39;;;;;;;50.03;20.88;;;;;;;;;;5021885;28;20104;-71
2022/09/12 01:46:04;;;;;;;52.40;20.25;;;;;;;;;;5026479;28;20531;-66
2022/09/12 01:48:34;;;;;;;44.60;20.77;;;;;;;;;;5025986;28;20080;-67
2022/09/12 01:50:59;;;;;;;;;;;;;;;;;;5022050;28;20287;-72
2022/09/12 01:53:27;;;;;;;51.88;20.92;;;;;;;;;;5019336;28;19913;-67
2022/09/12 01:55:59;;;;;;;45.78;20.42;;;;;;;;;;5020557;28;20021;-69
2022/09/12 01:58:53;;;;;;;47.55;19.67;;;;;;;;;;5019688;28;20025;-67
2022/09/12 02:01:25;;;;;;;56.05;21.90;;;;;;;;;;4999637;28;20038;-70
2022/09/12 02:03:59;;;;;;;47.03;20.33;;;;;;;;;;5025615;28;20512;-68
2022/09/12 02:06:46;;;;;;;48.83;19.73;;;;;;;;;;5025925;28;20014;-67
2022/09/12 02:09:17;;;;;;;45.00;21.33;;;;;;;;;;5028838;28;20075;-66
2022/09/12 02:11:43;;;;;;;50.45;20.77;;;;;;;;;;5024435;28;20019;-69
2022/09/12 02:14:10;;;;;;;44.80;20.77;;;;;;;;;;5024078;28;20474;-67
2022/09/12 02:16:47;;;;;;;49.03;21.55;;;;;;;;;;5026139;28;20390;-64
2022/09/12 02:19:17;;;;;;;53.38;20.33;;;;;;;;;;5028266;28;20029;-67
2022/09/12 02:21:48;;;;;;;52.47;20.30;;;;;;;;;;5029005;28;20018;-67
2022/09/12 02:24:14;;;;;;;47.22;20.17;;;;;;;;;;5026540;28;20490;-65
2022/09/12 02:26:48;;;;;;;44.58;19.98;;;;;;;;;;5029443;28;20025;-64
2022/09/12 02:29:13;;;;;;;52.08;21.02;;;;;;;;;;5029225;28;20021;-64
2022/09/12 02:31:46;;;;;;;42.45;18.77;;;;;;;;;;5029835;28;20048;-67
2022/09/12 02:34:18;;;;;;;42.80;20.08;;;;;;;;;;5031667;28;21596;-64
2022/09/12 02:36:55;;;;;;;40.58;18.33;;;;;;;;;;5031099;28;20045;-68
2022/09/12 02:39:20;;;;;;;50.20;19.20;;;;;;;;;;5031176;28;20013;-65
2022/09/12 02:41:55;;;;;;;39.03;18.30;;;;;;;;;;5028543;28;20113;-67
2022/09/12 02:44:21;;;;;;;41.90;18.80;;;;;;;;;;5026812;28;20028;-64
2022/09/12 02:46:48;;;;;;;44.08;18.83;;;;;;;;;;5026160;28;20161;-66
2022/09/12 02:49:14;;;;;;;42.08;18.35;;;;;;;;;;5028799;28;20029;-64
2022/09/12 02:51:39;;;;;;;40.33;17.52;;;;;;;;;;5012216;28;20474;-67
2022/09/12 02:54:06;;;;;;;34.60;18.15;;;;;;;;;;5027260;28;20025;-64
2022/09/12 02:56:31;;;;;;;40.97;18.08;;;;;;;;;;5030181;28;20021;-64
2022/09/12 02:59:05;;;;;;;35.00;18.42;;;;;;;;;;5028298;28;20026;-65
2022/09/12 03:02:03;;;;;;;39.42;17.05;;;;;;;;;;5028070;28;20080;-66
2022/09/12 03:04:29;;;;;;;34.22;16.33;;;;;;;;;;5001584;28;20038;-65
2022/09/12 03:06:57;;;;;;;40.05;15.85;;;;;;;;;;5029435;28;20036;-67
2022/09/12 03:09:40;;;;;;;46.33;17.58;;;;;;;;;;5025410;28;20114;-69
2022/09/12 03:12:14;;;;;;;37.05;16.95;;;;;;;;;;5027710;28;20029;-66
2022/09/12 03:15:03;;;;;;;35.03;16.20;;;;;;;;;;5029343;28;20382;-65
2022/09/12 03:17:28;;;;;;;36.35;16.73;;;;;;;;;;5024812;28;20094;-68
2022/09/12 03:19:56;;;;;;;30.15;16.00;;;;;;;;;;5027178;28;20636;-64
2022/09/12 03:22:34;;;;;;;38.33;16.70;;;;;;;;;;5020164;28;20032;-64
2022/09/12 03:25:07;;;;;;;33.35;14.85;;;;;;;;;;5029739;28;20476;-64
2022/09/12 03:27:34;;;;;;;32.83;16.17;;;;;;;;;;5028125;28;20131;-64
2022/09/12 03:30:00;;;;;;;33.95;15.25;;;;;;;;;;5027818;28;20036;-68
2022/09/12 03:32:47;;;;;;;30.13;15.38;;;;;;;;;;5027156;28;20025;-65
2022/09/12 03:35:13;;;;;;;40.45;16.45;;;;;;;;;;5027556;28;20037;-64
2022/09/12 03:37:38;;;;;;;30.75;14.90;;;;;;;;;;5028822;28;20156;-64
2022/09/12 03:40:04;;;;;;;38.78;15.63;;;;;;;;;;5025617;28;20040;-65
2022/09/12 03:42:29;;;;;;;29.25;14.18;;;;;;;;;;5029937;28;20477;-67
2022/09/12 03:44:54;;;;;;;28.60;14.80;;;;;;;;;;5021943;28;20030;-72
2022/09/12 03:47:20;;;;;;;33.60;14.10;;;;;;;;;;5024187;28;20363;-67
2022/09/12 03:49:45;;;;;;;29.60;14.27;;;;;;;;;;5029131;28;20288;-67
2022/09/12 03:52:11;;;;;;;29.15;13.63;;;;;;;;;;5027712;28;20279;-69
2022/09/12 03:54:36;;;;;;;28.00;13.45;;;;;;;;;;5004870;28;20546;-68
2022/09/12 03:57:01;;;;;;;28.63;13.57;;;;;;;;;;5022308;28;20017;-65
2022/09/12 03:59:26;;;;;;;36.33;14.80;;;;;;;;;;5022058;28;20747;-71
2022/09/12 04:01:51;;;;;;;38.60;14.80;;;;;;;;;;5023244;28;20288;-67
2022/09/12 04:04:16;;;;;;;27.50;13.67;;;;;;;;;;5022633;28;20275;-67
2022/09/12 04:06:42;;;;;;;34.85;14.98;;;;;;;;;;5020549;28;20300;-67
2022/09/12 04:09:08;;;;;;;32.70;14.43;;;;;;;;;;5022427;28;20037;-65
2022/09/12 04:11:34;;;;;;;31.10;13.43;;;;;;;;;;5020274;28;20036;-69
2022/09/12 04:14:00;;;;;;;29.23;14.95;;;;;;;;;;5021937;28;20373;-67
2022/09/12 04:16:25;;;;;;;39.45;15.77;;;;;;;;;;5023516;28;20025;-66
2022/09/12 04:18:50;;;;;;;29.90;14.50;;;;;;;;;;5024535;28;20034;-70
2022/09/12 04:21:17;;;;;;;31.40;14.40;;;;;;;;;;5025495;28;20272;-67
2022/09/12 04:23:42;;;;;;;29.30;14.63;;;;;;;;;;5027595;28;20021;-64
2022/09/12 04:26:08;;;;;;;34.47;15.15;;;;;;;;;;5027522;28;20152;-64
2022/09/12 04:28:35;;;;;;;28.52;13.35;;;;;;;;;;5028335;28;20029;-64
2022/09/12 04:31:05;;;;;;;30.17;14.27;;;;;;;;;;5024454;28;20018;-68
2022/09/12 04:33:31;;;;;;;31.13;13.20;;;;;;;;;;5024764;28;20100;-66
2022/09/12 04:36:01;;;;;;;32.33;14.30;;;;;;;;;;5025839;28;20144;-66
2022/09/12 04:38:26;;;;;;;;;;;;;;;;;;5029644;28;20413;-66
2022/09/12 04:40:51;;;;;;;24.98;12.70;;;;;;;;;;5027066;28;20352;-69
2022/09/12 04:43:16;;;;;;;30.30;13.52;;;;;;;;;;5025839;28;20025;-66
2022/09/12 04:45:41;;;;;;;33.23;14.50;;;;;;;;;;5024107;28;20655;-69
2022/09/12 04:48:07;;;;;;;29.00;14.20;;;;;;;;;;5022785;28;20276;-67
2022/09/12 04:50:32;;;;;;;28.33;13.67;;;;;;;;;;5044335;23;20322;-70
2022/09/12 04:52:57;;;;;;;27.23;13.47;;;;;;;;;;5045473;28;20639;-67
2022/09/12 04:55:24;;;;;;;31.77;13.53;;;;;;;;;;5044479;28;20320;-66
2022/09/12 04:57:49;;;;;;;29.80;14.32;;;;;;;;;;5043322;28;20275;-68
2022/09/12 05:00:14;;;;;;;35.57;14.00;;;;;;;;;;5045179;28;20021;-69
2022/09/12 05:02:40;;;;;;;28.83;14.55;;;;;;;;;;5043039;28;20635;-69
2022/09/12 05:05:06;;;;;;;34.92;14.95;;;;;;;;;;5045329;28;20039;-64
2022/09/12 05:07:31;;;;;;;31.83;15.65;;;;;;;;;;5044707;28;20055;-66
2022/09/12 05:09:57;;;;;;;28.73;14.60;;;;;;;;;;5046511;28;20037;-69
2022/09/12 05:12:22;;;;;;;29.58;14.45;;;;;;;;;;5042701;28;20082;-67
2022/09/12 05:14:47;;;;;;;26.27;14.05;;;;;;;;;;5046524;28;20049;-65
2022/09/12 05:17:12;;;;;;;34.03;14.20;;;;;;;;;;5039280;28;20028;-69
2022/09/12 05:19:38;;;;;;;27.52;13.15;;;;;;;;;;5040804;28;20746;-69
2022/09/12 05:22:05;;;;;;;46.47;14.75;;;;;;;;;;5039960;28;20013;-68
2022/09/12 05:24:31;;;;;;;28.48;12.25;;;;;;;;;;5047361;28;20017;-71
2022/09/12 05:26:56;;;;;;;26.42;13.38;;;;;;;;;;5046837;28;20021;-66
2022/09/12 05:29:23;;;;;;;22.80;11.73;;;;;;;;;;5045474;28;20028;-66
2022/09/12 05:31:50;;;;;;;26.58;11.63;;;;;;;;;;5046857;28;20339;-65
2022/09/12 05:34:16;;;;;;;20.73;11.57;;;;;;;;;;5049587;28;20016;-65
2022/09/12 05:36:41;;;;;;;20.92;11.75;;;;;;;;;;5034054;28;20388;-68
2022/09/12 05:39:06;;;;;;;27.57;12.50;;;;;;;;;;5054130;28;20033;-65
2022/09/12 05:41:32;;;;;;;25.10;11.43;;;;;;;;;;5053988;28;20247;-67
2022/09/12 05:44:01;;;;;;;27.30;11.63;;;;;;;;;;5053843;28;20607;-68
2022/09/12 05:46:28;;;;;;;22.02;11.52;;;;;;;;;;5052033;28;20021;-66
2022/09/12 05:48:54;;;;;;;29.30;12.23;;;;;;;;;;5053255;28;20036;-66
2022/09/12 05:51:21;;;;;;;24.75;12.23;;;;;;;;;;5035320;28;20020;-66
2022/09/12 05:53:48;;;;;;;22.80;11.80;;;;;;;;;;5051395;28;20491;-69
2022/09/12 05:56:15;;;;;;;24.73;11.25;;;;;;;;;;5055086;28;20404;-69
2022/09/12 05:58:41;;;;;;;22.25;11.23;;;;;;;;;;5052142;28;20023;-70
2022/09/12 06:01:07;;;;;;;26.23;10.02;;;;;;;;;;5050285;28;20029;-67
2022/09/12 06:03:33;;;;;;;23.13;10.65;;;;;;;;;;5049164;28;20062;-68
2022/09/12 06:06:03;;;;;;;23.00;11.23;;;;;;;;;;5052080;28;20474;-66
2022/09/12 06:08:28;;;;;;;20.85;10.52;;;;;;;;;;5046952;28;20130;-69
2022/09/12 06:10:57;;;;;;;23.77;10.40;;;;;;;;;;5050911;28;20108;-66
2022/09/12 06:13:22;;;;;;;19.75;11.10;;;;;;;;;;5050548;28;20024;-69
2022/09/12 06:15:47;;;;;;;19.07;11.03;;;;;;;;;;5048806;28;20031;-65
2022/09/12 06:18:12;;;;;;;23.48;10.55;;;;;;;;;;5049042;28;20263;-70
2022/09/12 06:20:38;;;;;;;23.07;11.17;;;;;;;;;;5044698;28;20028;-68
2022/09/12 06:23:03;;;;;;;23.60;11.30;;;;;;;;;;5049640;28;20275;-70
2022/09/12 06:25:28;;;;;;;21.40;11.90;;;;;;;;;;5049634;28;20295;-67
2022/09/12 06:27:53;;;;;;;22.58;10.57;;;;;;;;;;5047904;28;20267;-70
2022/09/12 06:30:18;;;;;;;25.80;11.17;;;;;;;;;;5048389;28;20509;-66
2022/09/12 06:32:43;;;;;;;22.97;11.27;;;;;;;;;;5049263;28;20370;-69
2022/09/12 06:35:09;;;;;;;27.47;13.13;;;;;;;;;;5048511;28;20291;-66
2022/09/12 06:37:34;;;;;;;25.37;11.97;;;;;;;;;;5049320;28;20298;-70
2022/09/12 06:39:59;;;;;;;25.77;11.47;;;;;;;;;;5048041;28;20268;-66
2022/09/12 06:42:24;;;;;;;21.20;11.13;;;;;;;;;;5046712;28;20275;-68
2022/09/12 06:44:50;;;;;;;23.43;12.67;;;;;;;;;;5049749;28;20029;-68
2022/09/12 06:47:16;;;;;;;19.00;10.52;;;;;;;;;;5047370;28;20372;-69
2022/09/12 06:49:41;;;;;;;18.83;11.33;;;;;;;;;;5049749;28;20037;-70
2022/09/12 06:52:06;;;;;;;15.93;9.33;;;;;;;;;;5048394;28;20290;-69
2022/09/12 06:54:31;;;;;;;21.83;10.33;;;;;;;;;;5047329;28;20029;-69
2022/09/12 06:56:56;;;;;;;26.10;10.07;;;;;;;;;;5049769;28;20979;-67
2022/09/12 06:59:21;;;;;;;15.50;9.93;;;;;;;;;;5049605;28;20272;-69
2022/09/12 07:01:47;;;;;;;16.83;9.63;;;;;;;;;;5050532;28;20111;-66
2022/09/12 07:04:12;;;;;;;19.75;10.05;;;;;;;;;;5048921;28;20021;-69
2022/09/12 07:06:39;;;;;;;16.88;10.23;;;;;;;;;;5048290;28;20036;-66
2022/09/12 07:09:05;;;;;;;16.75;9.65;;;;;;;;;;5046952;28;20028;-66
2022/09/12 07:11:32;;;;;;;15.60;9.05;;;;;;;;;;5049097;28;20025;-66
2022/09/12 07:13:58;;;;;;;18.25;10.25;;;;;;;;;;5050071;28;20111;-67
2022/09/12 07:16:24;;;;;;;16.88;9.38;;;;;;;;;;5050474;28;20021;-66
2022/09/12 07:18:53;;;;;;;21.35;9.68;;;;;;;;;;5050039;28;20074;-67
2022/09/12 07:21:19;;;;;;;16.48;9.55;;;;;;;;;;5042663;28;20021;-66
2022/09/12 07:23:44;;;;;;;15.65;8.25;;;;;;;;;;5047121;28;20029;-66
2022/09/12 07:26:10;;;;;;;19.20;9.35;;;;;;;;;;5049633;28;20013;-69
2022/09/12 07:28:36;;;;;;;14.65;9.63;;;;;;;;;;5047162;28;20413;-71
2022/09/12 07:31:08;;;;;;;15.75;8.88;;;;;;;;;;5050155;28;20029;-67
2022/09/12 07:33:33;;;;;;;20.70;9.38;;;;;;;;;;5047771;28;20029;-68
2022/09/12 07:36:04;;;;;;;15.30;8.15;;;;;;;;;;5037722;28;20079;-69
2022/09/12 07:38:30;;;;;;;25.02;11.00;;;;;;;;;;5045086;28;20021;-66
2022/09/12 07:40:55;;;;;;;14.60;9.35;;;;;;;;;;5040734;28;20311;-66
2022/09/12 07:43:21;;;;;;;14.77;9.18;;;;;;;;;;5043432;28;20056;-70
2022/09/12 07:45:46;;;;;;;20.85;8.95;;;;;;;;;;5046515;28;20029;-73
2022/09/12 07:48:11;;;;;;;16.73;9.27;;;;;;;;;;5048640;28;20472;-68
2022/09/12 07:50:36;;;;;;;17.93;8.23;;;;;;;;;;5050336;28;20307;-67
2022/09/12 07:53:02;;;;;;;15.95;9.45;;;;;;;;;;5046894;28;20314;-68
2022/09/12 07:55:28;;;;;;;17.50;9.48;;;;;;;;;;5049182;28;20027;-68
2022/09/12 07:57:54;;;;;;;15.85;9.27;;;;;;;;;;5048053;28;20373;-66
2022/09/12 08:00:19;;;;;;;20.30;9.65;;;;;;;;;;5050147;28;20013;-67
2022/09/12 08:02:49;;;;;;;20.35;9.73;;;;;;;;;;5047436;28;20123;-70
2022/09/12 08:05:14;;;;;;;15.10;9.07;;;;;;;;;;5051088;28;20043;-69
2022/09/12 08:07:39;;;;;;;18.10;9.87;;;;;;;;;;5047975;28;20025;-68
2022/09/12 08:10:05;;;;;;;20.27;9.87;;;;;;;;;;5047506;28;20700;-69
2022/09/12 08:12:31;;;;;;;13.82;8.68;;;;;;;;;;5040996;28;20021;-66
2022/09/12 08:14:56;;;;;;;16.65;10.13;;;;;;;;;;5048574;28;20028;-66
2022/09/12 08:17:21;;;;;;;15.55;9.65;;;;;;;;;;5041524;28;20017;-68
2022/09/12 08:19:47;;;;;;;16.23;9.47;;;;;;;;;;5045182;28;20009;-69
2022/09/12 08:22:12;;;;;;;15.77;9.45;;;;;;;;;;5047001;28;20033;-67
2022/09/12 08:24:40;;;;;;;13.82;7.32;;;;;;;;;;5042899;28;20021;-70
2022/09/12 08:27:06;;;;;;;16.45;9.27;;;;;;;;;;5044222;28;20120;-67
2022/09/12 08:29:31;;;;;;;19.50;8.70;;;;;;;;;;5043111;28;20112;-72
2022/09/12 08:31:56;;;;;;;13.27;8.40;;;;;;;;;;5046815;28;20047;-69
2022/09/12 08:34:21;;;;;;;15.83;8.60;;;;;;;;;;5046413;28;20020;-70
2022/09/12 08:36:46;;;;;;;13.30;7.35;;;;;;;;;;5048401;28;20284;-68
2022/09/12 08:39:13;;;;;;;12.27;6.70;;;;;;;;;;5045320;28;20035;-69
2022/09/12 08:41:40;;;;;;;11.57;5.70;;;;;;;;;;5046583;28;20271;-67
2022/09/12 08:44:05;;;;;;;13.63;7.10;;;;;;;;;;5047441;28;20056;-69
2022/09/12 08:46:34;;;;;;;11.45;6.15;;;;;;;;;;5044367;28;20041;-70
2022/09/12 08:49:01;;;;;;;11.35;6.15;;;;;;;;;;5044520;28;20393;-67
2022/09/12 08:51:27;;;;;;;9.82;5.35;;;;;;;;;;5049322;28;20020;-72
2022/09/12 08:53:55;;;;;;;11.65;6.05;;;;;;;;;;5048223;28;20052;-71
2022/09/12 08:56:20;;;;;;;8.85;5.95;;;;;;;;;;5047218;28;20032;-70
2022/09/12 08:58:46;;;;;;;9.95;4.72;;;;;;;;;;5047093;28;20024;-67
2022/09/12 09:01:26;;;;;;;8.75;5.85;;;;;;;;;;5048539;28;21434;-67
2022/09/12 09:03:58;;;;;;;13.80;5.20;;;;;;;;;;5043559;28;20489;-68
2022/09/12 09:06:26;;;;;;;10.50;4.88;;;;;;;;;;5041539;28;20021;-73
2022/09/12 09:09:03;;;;;;;9.63;5.60;;;;;;;;;;5042418;28;20025;-68
2022/09/12 09:11:55;;;;;;;9.13;5.38;;;;;;;;;;5044629;28;20171;-73
2022/09/12 09:14:48;;;;;;;9.45;5.25;;;;;;;;;;5032277;28;20489;-69
2022/09/12 09:17:30;;;;;;;7.78;4.50;;;;;;;;;;5048913;28;20028;-72
2022/09/12 09:20:04;;;;;;;9.85;5.53;;;;;;;;;;5043783;28;20280;-71
2022/09/12 09:22:35;;;;;;;9.18;4.13;;;;;;;;;;5045677;28;20104;-70
2022/09/12 09:25:06;;;;;;;2.75;1.77;;;;;;;;;;5045308;28;20025;-67
2022/09/12 09:27:33;;;;;;;7.63;4.38;;;;;;;;;;5040833;28;20132;-73
2022/09/12 09:29:59;;;;;;;10.73;5.15;;;;;;;;;;5045690;28;20035;-68
2022/09/12 09:32:25;;;;;;;5.68;3.20;;;;;;;;;;5047473;28;20029;-70
2022/09/12 09:34:51;;;;;;;9.20;3.63;;;;;;;;;;5047321;28;20057;-68
2022/09/12 09:37:23;;;;;;;8.15;3.63;;;;;;;;;;5047536;28;20048;-68
2022/09/12 09:40:11;;;;;;;10.35;4.43;;;;;;;;;;5046672;28;20091;-67
2022/09/12 09:42:37;;;;;;;6.03;3.05;;;;;;;;;;5043493;28;20108;-68
2022/09/12 09:45:10;;;;;;;9.47;3.10;;;;;;;;;;5049362;28;20112;-69
2022/09/12 09:47:35;;;;;;;6.22;3.75;;;;;;;;;;5044972;28;20027;-68
2022/09/12 09:50:00;;;;;;;9.00;4.20;;;;;;;;;;5043682;28;20029;-69
2022/09/12 09:52:28;;;;;;;8.10;4.33;;;;;;;;;;5049740;28;20028;-67
2022/09/12 09:54:58;;;;;;;9.65;3.63;;;;;;;;;;5039409;28;20124;-73
2022/09/12 09:57:24;;;;;;;;;;;;;;;;;;5036222;28;20045;-69
2022/09/12 09:59:49;;;;;;;4.90;3.75;;;;;;;;;;5044798;28;19912;-67
2022/09/12 10:02:22;;;;;;;6.97;4.50;;;;;;;;;;5046983;28;20063;-70
2022/09/12 10:04:57;;;;;;;18.23;2.83;;;;;;;;;;5048101;28;20021;-70
2022/09/12 10:07:23;;;;;;;6.43;3.75;;;;;;;;;;5045215;28;20021;-68
2022/09/12 10:10:07;;;;;;;5.63;3.25;;;;;;;;;;5047377;28;20036;-70
2022/09/12 10:12:32;;;;;;;8.23;3.88;;;;;;;;;;5042923;28;20459;-70
2022/09/12 10:15:02;;;;;;;6.77;3.80;;;;;;;;;;5045984;28;20028;-69
2022/09/12 10:17:30;;;;;;;6.13;4.10;;;;;;;;;;5047367;28;20093;-69
2022/09/12 10:19:55;;;;;;;6.75;3.85;;;;;;;;;;5047840;28;20366;-70
2022/09/12 10:22:26;;;;;;;4.30;2.85;;;;;;;;;;5046565;28;20169;-70
2022/09/12 10:24:52;;;;;;;6.63;3.40;;;;;;;;;;5048234;28;20131;-69
2022/09/12 10:27:19;;;;;;;5.70;2.80;;;;;;;;;;5049591;28;20499;-70
2022/09/12 10:29:47;;;;;;;2.65;1.98;;;;;;;;;;5047396;28;20120;-70
2022/09/12 10:32:20;;;;;;;7.07;3.20;;;;;;;;;;5045486;28;20037;-69
2022/09/12 10:34:46;;;;;;;5.93;3.58;;;;;;;;;;5049976;28;20025;-70
2022/09/12 10:37:16;;;;;;;4.38;2.45;;;;;;;;;;5050221;28;20033;-69
2022/09/12 10:39:48;;;;;;;4.75;3.33;;;;;;;;;;5050491;28;20370;-69
2022/09/12 10:42:14;;;;;;;3.75;1.77;;;;;;;;;;5050693;28;20025;-69
2022/09/12 10:44:51;;;;;;;2.70;1.90;;;;;;;;;;5050033;28;20063;-68
2022/09/12 10:47:20;;;;;;;2.92;1.92;;;;;;;;;;5049354;28;20098;-69
2022/09/12 10:49:46;;;;;;;5.63;3.42;;;;;;;;;;5048851;28;20040;-68
2022/09/12 10:52:29;;;;;;;5.75;3.53;;;;;;;;;;5048991;28;20032;-68
2022/09/12 10:54:54;;;;;;;5.28;3.00;;;;;;;;;;5050875;28;20036;-69
2022/09/12 10:57:22;;;;;;;4.50;2.70;;;;;;;;;;5052398;28;20458;-69
2022/09/12 10:59:57;;;;;;;6.53;2.53;;;;;;;;;;5048802;28;20281;-69
2022/09/12 11:02:32;;;;;;;3.85;2.28;;;;;;;;;;5051136;28;20389;-67
2022/09/12 11:05:07;;;;;;;8.15;2.60;;;;;;;;;;5043941;28;20033;-69
2022/09/12 11:07:35;;;;;;;4.65;2.55;;;;;;;;;;5052357;28;20025;-69
2022/09/12 11:10:15;;;;;;;4.82;2.40;;;;;;;;;;5048842;28;20560;-69
2022/09/12 11:13:04;;;;;;;2.15;1.95;;;;;;;;;;5052625;28;20028;-69
2022/09/12 11:15:56;;;;;;;2.88;2.20;;;;;;;;;;5040371;28;20083;-68
2022/09/12 11:18:30;;;;;;;4.30;2.08;;;;;;;;;;5028749;28;20033;-65
2022/09/12 11:20:59;;;;;;;14.70;2.90;;;;;;;;;;5046716;28;20051;-68
2022/09/12 11:23:30;;;;;;;4.15;2.60;;;;;;;;;;5049506;28;20020;-68
2022/09/12 11:25:58;;;;;;;6.22;3.50;;;;;;;;;;5050704;28;20025;-67
2022/09/12 11:28:42;;;;;;;3.35;2.22;;;;;;;;;;5050043;28;20013;-67
2022/09/12 11:31:10;;;;;;;3.05;2.10;;;;;;;;;;5043483;28;20028;-67
2022/09/12 11:33:39;;;;;;;5.18;2.63;;;;;;;;;;5044263;28;20029;-67
2022/09/12 11:36:10;;;;;;;4.00;2.87;;;;;;;;;;5042838;28;20017;-67
2022/09/12 11:38:35;;;;;;;3.35;2.42;;;;;;;;;;5046053;28;20271;-67
2022/09/12 11:41:20;;;;;;;3.20;1.97;;;;;;;;;;5043676;28;20013;-67
2022/09/12 11:43:45;;;;;;;4.68;2.33;;;;;;;;;;5041128;28;20771;-67
2022/09/12 11:46:17;;;;;;;6.70;2.45;;;;;;;;;;5045193;28;20064;-67
2022/09/12 11:48:59;;;;;;;3.50;2.10;;;;;;;;;;5048286;28;20478;-67
2022/09/12 11:51:47;;;;;;;4.30;2.90;;;;;;;;;;5050124;28;20392;-67
2022/09/12 11:54:27;;;;;;;3.20;2.33;;;;;;;;;;5039852;28;20357;-67
2022/09/12 11:56:58;;;;;;;2.33;1.42;;;;;;;;;;5046488;28;20468;-67
2022/09/12 11:59:28;;;;;;;5.85;2.80;;;;;;;;;;5047440;28;20053;-67
2022/09/12 12:01:57;;;;;;;3.90;2.97;;;;;;;;;;5049331;28;20079;-67
2022/09/12 12:04:26;;;;;;;5.55;2.28;;;;;;;;;;5049107;28;20033;-67
2022/09/12 12:06:56;;;;;;;3.15;2.22;;;;;;;;;;5046747;28;20036;-67
2022/09/12 12:09:22;;;;;;;3.30;2.33;;;;;;;;;;5042395;28;20021;-67
2022/09/12 12:11:49;;;;;;;7.05;2.67;;;;;;;;;;5047428;28;20037;-67
2022/09/12 12:14:16;;;;;;;3.60;2.00;;;;;;;;;;5050147;28;20021;-67
2022/09/12 12:16:42;;;;;;;3.83;1.80;;;;;;;;;;5046310;28;20033;-67
2022/09/12 12:19:13;;;;;;;6.30;2.92;;;;;;;;;;5050498;28;20487;-67
2022/09/12 12:21:48;;;;;;;3.83;2.88;;;;;;;;;;5048553;28;20028;-67
2022/09/12 12:24:15;;;;;;;6.85;2.65;;;;;;;;;;5047282;28;20016;-67
2022/09/12 12:26:42;;;;;;;4.55;2.25;;;;;;;;;;5048711;28;20021;-67
2022/09/12 12:29:16;;;;;;;4.25;2.55;;;;;;;;;;5043767;28;20017;-67
2022/09/12 12:31:57;;;;;;;6.53;3.53;;;;;;;;;;5046657;28;20025;-67
2022/09/12 12:34:28;;;;;;;4.10;2.17;;;;;;;;;;5049253;28;20036;-67
2022/09/12 12:36:53;;;;;;;4.22;2.28;;;;;;;;;;5047944;28;20039;-67
2022/09/12 12:39:41;;;;;;;4.72;2.47;;;;;;;;;;5049290;28;20517;-67
2022/09/12 12:42:07;;;;;;;3.35;2.05;;;;;;;;;;5028610;28;20025;-67
2022/09/12 12:44:44;;;;;;;3.07;2.50;;;;;;;;;;5047716;28;20366;-67
2022/09/12 12:47:22;;;;;;;4.72;2.60;;;;;;;;;;5049482;28;20017;-69
2022/09/12 12:49:52;;;;;;;4.82;2.95;;;;;;;;;;5048934;28;20025;-66
2022/09/12 12:52:18;;;;;;;3.45;2.42;;;;;;;;;;5042942;28;20024;-67
2022/09/12 12:54:43;;;;;;;7.85;3.00;;;;;;;;;;5049338;28;20048;-67
2022/09/12 12:57:11;;;;;;;3.47;2.40;;;;;;;;;;5049854;28;20021;-67
2022/09/12 12:59:36;;;;;;;3.40;1.90;;;;;;;;;;5047008;28;20064;-67
2022/09/12 13:02:02;;;;;;;2.80;2.50;;;;;;;;;;5048131;28;20057;-66
2022/09/12 13:04:31;;;;;;;2.92;2.28;;;;;;;;;;5049603;28;20292;-66
2022/09/12 13:06:58;;;;;;;5.97;2.60;;;;;;;;;;5049281;28;20507;-71
2022/09/12 13:09:38;;;;;;;3.45;2.03;;;;;;;;;;5047849;28;20565;-66
2022/09/12 13:12:06;;;;;;;2.15;1.48;;;;;;;;;;5047956;28;20024;-70
2022/09/12 13:14:55;;;;;;;3.88;2.40;;;;;;;;;;5047767;28;20037;-69
2022/09/12 13:17:35;;;;;;;3.00;1.73;;;;;;;;;;5040310;28;20039;-66
2022/09/12 13:20:21;;;;;;;5.05;2.67;;;;;;;;;;5049558;28;20098;-66
2022/09/12 13:22:47;;;;;;;3.28;2.40;;;;;;;;;;5051253;28;20458;-66
2022/09/12 13:25:24;;;;;;;3.92;2.28;;;;;;;;;;5049893;28;20100;-66
2022/09/12 13:28:18;;;;;;;5.57;1.70;;;;;;;;;;5049347;28;20040;-66
2022/09/12 13:31:04;;;;;;;3.00;1.50;;;;;;;;;;5036583;28;20037;-71
2022/09/12 13:33:48;;;;;;;5.65;2.10;;;;;;;;;;5035627;28;20029;-67
2022/09/12 13:36:16;;;;;;;3.33;1.58;;;;;;;;;;5042867;28;20021;-66
2022/09/12 13:38:57;;;;;;;6.15;2.30;;;;;;;;;;5047866;28;20029;-66
2022/09/12 13:41:31;;;;;;;3.45;2.10;;;;;;;;;;5046511;28;20021;-66
2022/09/12 13:43:56;;;;;;;3.28;2.10;;;;;;;;;;5048549;28;20052;-67
2022/09/12 13:46:26;;;;;;;3.15;1.83;;;;;;;;;;5048022;28;20450;-70
2022/09/12 13:48:51;;;;;;;;;;;;;;;;;;5031900;28;20496;-67
2022/09/12 13:51:28;;;;;;;3.28;2.00;;;;;;;;;;5047967;28;19912;-69
2022/09/12 13:53:56;;;;;;;1.65;0.82;;;;;;;;;;5047107;28;20033;-70
2022/09/12 13:56:21;;;;;;;2.75;1.67;;;;;;;;;;5048971;28;20460;-71
2022/09/12 13:58:57;;;;;;;4.10;2.40;;;;;;;;;;5049794;28;20131;-69
2022/09/12 14:01:23;;;;;;;2.60;1.60;;;;;;;;;;5043882;28;20060;-68
2022/09/12 14:06:35;;;;;;;4.50;2.30;;;;;;;;;;5049923;28;20028;-66
2022/09/12 14:09:01;;;;;;;5.15;2.05;;;;;;;;;;5048403;28;21120;-70
2022/09/12 14:11:27;;;;;;;2.08;1.83;;;;;;;;;;5047986;28;20020;-69
2022/09/12 14:13:52;;;;;;;2.85;1.85;;;;;;;;;;5049233;28;20052;-68
2022/09/12 14:16:20;;;;;;;5.18;2.20;;;;;;;;;;5052794;28;20046;-68
2022/09/12 14:18:46;;;;;;;4.65;1.60;;;;;;;;;;5051564;28;20021;-73
2022/09/12 14:21:26;;;;;;;1.80;1.52;;;;;;;;;;5050638;28;20020;-66
2022/09/12 14:23:52;;;;;;;2.10;1.55;;;;;;;;;;5049054;28;20029;-66
2022/09/12 14:26:17;;;;;;;5.72;1.60;;;;;;;;;;5051921;28;20665;-66
2022/09/12 14:28:46;;;;;;;6.18;1.90;;;;;;;;;;5051002;28;20032;-66
2022/09/12 14:31:11;;;;;;;6.40;1.95;;;;;;;;;;5052695;28;20025;-66
2022/09/12 14:33:55;;;;;;;5.50;2.33;;;;;;;;;;5052068;28;20073;-70
2022/09/12 14:36:21;;;;;;;3.20;1.90;;;;;;;;;;5050527;28;20499;-66
2022/09/12 14:38:48;;;;;;;3.35;1.83;;;;;;;;;;5052513;28;20063;-70
2022/09/12 14:41:20;;;;;;;3.65;1.85;;;;;;;;;;5048035;28;20021;-66
2022/09/12 14:43:50;;;;;;;2.83;1.70;;;;;;;;;;5051044;28;20036;-66
2022/09/12 14:46:20;;;;;;;4.63;1.88;;;;;;;;;;5053413;28;20021;-67